Time;durP1;ratioP1;P1;durP2;ratioP2;P2;SDS_P1;SDS_P2;PMS_P1;PMS_P2;Temp;Humidity;BMP_temperature;BMP_pressure;BME280_temperature;BME280_humidity;BME280_pressure;Samples;Min_cycle;Max_cycle;Signal;HPM_P1;HPM_P2
2024/01/16 17:20:51;;;;;;;10.60;3.53;;;1.60;99.90;;;;;;5098628;27;20706;-50
2024/01/16 17:23:18;;;;;;;14.15;3.95;;;1.70;99.90;;;;;;5096380;28;20189;-52
2024/01/16 17:25:44;;;;;;;11.85;3.95;;;1.70;99.90;;;;;;5097203;28;20200;-52
2024/01/16 17:28:10;;;;;;;10.63;3.85;;;1.70;99.90;;;;;;5098117;28;20205;-47
2024/01/16 17:30:36;;;;;;;9.80;3.38;;;1.60;99.90;;;;;;5096924;28;20192;-51
2024/01/16 17:33:02;;;;;;;10.45;3.70;;;1.70;99.90;;;;;;5097112;28;20193;-47
2024/01/16 17:35:28;;;;;;;14.15;3.53;;;1.70;99.90;;;;;;5096748;28;20189;-50
2024/01/16 17:37:54;;;;;;;11.85;3.60;;;1.70;99.90;;;;;;5097963;28;20204;-46
2024/01/16 17:40:20;;;;;;;14.57;3.70;;;1.70;99.90;;;;;;5096548;28;20205;-48
2024/01/16 17:42:47;;;;;;;8.40;3.63;;;1.80;99.90;;;;;;5097982;28;21095;-50
2024/01/16 17:45:13;;;;;;;9.73;3.78;;;1.80;99.90;;;;;;5062827;28;20317;-49
2024/01/16 17:47:39;;;;;;;7.40;3.15;;;1.90;99.90;;;;;;5095826;28;20269;-48
2024/01/16 17:50:08;;;;;;;10.23;3.10;;;2.00;99.90;;;;;;5096459;28;20193;-51
2024/01/16 17:52:37;;;;;;;10.20;3.13;;;2.00;99.90;;;;;;5097342;28;20189;-49
2024/01/16 17:55:05;;;;;;;8.10;3.63;;;2.10;99.90;;;;;;5077892;28;20644;-49
2024/01/16 17:57:31;;;;;;;11.10;3.50;;;2.10;99.90;;;;;;5078751;28;21025;-50
2024/01/16 17:59:57;;;;;;;9.55;2.85;;;2.20;99.90;;;;;;5097196;28;20800;-48
2024/01/16 18:02:23;;;;;;;5.22;2.88;;;2.20;99.90;;;;;;5096249;28;20181;-47
2024/01/16 18:04:51;;;;;;;7.10;3.25;;;2.30;99.90;;;;;;5097319;28;20220;-47
2024/01/16 18:07:17;;;;;;;7.88;3.22;;;2.30;99.90;;;;;;5097354;28;20189;-50
2024/01/16 18:09:43;;;;;;;5.78;3.08;;;2.40;99.90;;;;;;5096764;28;20636;-47
2024/01/16 18:12:10;;;;;;;11.10;3.38;;;2.40;99.90;;;;;;5097594;28;20178;-47
2024/01/16 18:14:39;;;;;;;9.93;3.65;;;2.50;99.90;;;;;;5096674;28;20197;-49
2024/01/16 18:17:06;;;;;;;5.10;2.80;;;2.50;99.90;;;;;;5094738;28;20181;-47
2024/01/16 18:19:33;;;;;;;5.35;2.40;;;2.60;99.90;;;;;;5096656;28;20632;-51
2024/01/16 18:22:01;;;;;;;6.47;2.80;;;2.60;99.90;;;;;;5097131;28;20654;-45
2024/01/16 18:24:27;;;;;;;10.00;2.80;;;2.60;99.90;;;;;;5097370;28;20193;-48
2024/01/16 18:26:54;;;;;;;12.52;2.80;;;2.60;99.90;;;;;;5096666;28;20177;-52
2024/01/16 18:29:20;;;;;;;23.92;9.25;;;2.70;99.90;;;;;;5096540;28;20193;-51
2024/01/16 18:31:47;;;;;;;7.80;3.50;;;2.70;99.90;;;;;;5084965;28;20194;-44
2024/01/16 18:34:16;;;;;;;5.95;3.40;;;2.70;99.90;;;;;;5082237;28;20198;-50
2024/01/16 18:36:49;;;;;;;9.93;3.15;;;2.70;99.90;;;;;;5065942;28;20229;-55
2024/01/16 18:39:16;;;;;;;8.43;3.05;;;2.70;99.90;;;;;;5081344;28;20205;-48
2024/01/16 18:41:48;;;;;;;6.88;3.28;;;2.70;99.90;;;;;;5082646;28;20204;-52
2024/01/16 18:44:15;;;;;;;10.02;3.40;;;2.70;99.90;;;;;;5081722;28;20201;-46
2024/01/16 18:46:41;;;;;;;11.15;3.58;;;2.70;99.90;;;;;;5081224;28;20205;-45
2024/01/16 18:49:07;;;;;;;10.75;3.60;;;2.80;99.90;;;;;;5082644;28;20637;-51
2024/01/16 18:51:33;;;;;;;10.52;4.20;;;2.80;99.90;;;;;;5082716;28;20206;-50
2024/01/16 18:53:59;;;;;;;10.57;4.00;;;2.70;99.90;;;;;;5083044;28;20696;-50
2024/01/16 18:56:26;;;;;;;10.60;4.00;;;2.80;99.90;;;;;;5082386;28;20189;-49
2024/01/16 18:58:54;;;;;;;10.15;4.10;;;2.70;99.90;;;;;;5082514;28;20251;-51
2024/01/16 19:01:28;;;;;;;14.07;4.50;;;2.70;99.90;;;;;;5080774;28;20266;-47
2024/01/16 19:03:59;;;;;;;9.05;4.13;;;2.60;99.90;;;;;;5064642;28;20194;-47
2024/01/16 19:06:26;;;;;;;7.85;4.40;;;2.50;99.90;;;;;;5083093;28;20182;-47
2024/01/16 19:08:51;;;;;;;5.75;4.22;;;2.50;99.90;;;;;;5083100;28;20748;-52
2024/01/16 19:11:18;;;;;;;12.20;4.70;;;2.50;99.90;;;;;;5081529;28;20201;-50
2024/01/16 19:13:44;;;;;;;10.65;5.20;;;2.40;99.90;;;;;;5082705;28;20200;-47
2024/01/16 19:16:11;;;;;;;11.95;5.18;;;2.40;99.90;;;;;;5081437;28;20202;-49
2024/01/16 19:18:38;;;;;;;9.25;5.10;;;2.50;99.90;;;;;;5082520;28;20197;-51
2024/01/16 19:21:05;;;;;;;9.90;4.75;;;2.40;99.90;;;;;;5082697;28;20193;-50
2024/01/16 19:23:32;;;;;;;10.90;5.30;;;2.50;99.90;;;;;;5081523;28;20182;-47
2024/01/16 19:25:59;;;;;;;10.98;5.50;;;2.40;99.90;;;;;;5082829;28;20210;-49
2024/01/16 19:28:31;;;;;;;10.73;5.72;;;2.40;99.90;;;;;;5080797;28;20192;-50
2024/01/16 19:30:58;;;;;;;12.52;5.65;;;2.40;99.90;;;;;;5082359;28;20193;-45
2024/01/16 19:33:26;;;;;;;12.80;6.07;;;2.30;99.90;;;;;;5063515;28;21192;-48
2024/01/16 19:35:53;;;;;;;17.42;5.50;;;2.20;99.90;;;;;;5080790;28;20269;-54
2024/01/16 19:38:19;;;;;;;10.10;5.95;;;2.20;99.90;;;;;;5081188;28;20190;-51
2024/01/16 19:40:45;;;;;;;9.18;6.20;;;2.10;99.90;;;;;;5082610;28;20267;-50
2024/01/16 19:43:11;;;;;;;11.35;6.47;;;2.00;99.90;;;;;;5079773;28;20255;-47
2024/01/16 19:45:38;;;;;;;14.07;6.20;;;1.90;99.90;;;;;;5063306;28;20589;-49
2024/01/16 19:48:12;;;;;;;14.52;6.97;;;1.80;99.90;;;;;;5080863;28;21060;-50
2024/01/16 19:50:43;;;;;;;15.48;6.43;;;1.80;99.90;;;;;;5081594;28;20197;-51
2024/01/16 19:53:11;;;;;;;12.98;6.20;;;1.70;99.90;;;;;;5080244;28;20185;-47
2024/01/16 19:55:37;;;;;;;12.00;6.53;;;1.70;99.90;;;;;;5080084;28;20186;-50
2024/01/16 19:58:03;;;;;;;12.35;7.50;;;1.70;99.90;;;;;;5081926;28;20221;-45
2024/01/16 20:00:30;;;;;;;20.02;7.40;;;1.70;99.90;;;;;;5082297;28;20214;-51
2024/01/16 20:03:01;;;;;;;10.43;7.03;;;1.60;99.90;;;;;;5080577;28;20182;-52
2024/01/16 20:05:27;;;;;;;19.10;9.27;;;1.60;99.90;;;;;;5063808;28;20520;-50
2024/01/16 20:07:53;;;;;;;15.13;7.20;;;1.70;99.90;;;;;;5079654;28;20186;-49
2024/01/16 20:10:21;;;;;;;12.70;7.00;;;1.70;99.90;;;;;;5081965;28;20262;-49
2024/01/16 20:12:50;;;;;;;13.10;7.00;;;1.60;99.90;;;;;;5080944;28;20196;-48
2024/01/16 20:15:21;;;;;;;14.93;7.22;;;1.70;99.90;;;;;;5081037;28;20193;-51
2024/01/16 20:17:48;;;;;;;16.38;7.78;;;1.70;99.90;;;;;;5080743;28;20194;-49
2024/01/16 20:20:15;;;;;;;14.05;7.88;;;1.70;99.90;;;;;;5079579;28;20698;-48
2024/01/16 20:22:44;;;;;;;13.15;7.47;;;1.70;99.90;;;;;;5081969;28;20631;-47
2024/01/16 20:25:14;;;;;;;12.77;7.30;;;1.70;99.90;;;;;;5081260;28;20193;-51
2024/01/16 20:27:40;;;;;;;15.27;7.53;;;1.70;99.90;;;;;;5080665;28;20190;-48
2024/01/16 20:30:08;;;;;;;15.48;7.32;;;1.80;99.90;;;;;;5080847;28;20571;-49
2024/01/16 20:32:35;;;;;;;14.20;7.93;;;1.80;99.90;;;;;;5081578;28;20186;-50
2024/01/16 20:35:01;;;;;;;21.17;7.85;;;1.80;99.90;;;;;;5080500;28;20528;-49
2024/01/16 20:37:29;;;;;;;14.00;7.95;;;1.80;99.90;;;;;;5080600;28;20189;-44
2024/01/16 20:39:55;;;;;;;16.17;7.63;;;1.80;99.90;;;;;;5080258;28;20217;-45
2024/01/16 20:42:21;;;;;;;17.42;8.07;;;1.90;99.90;;;;;;5080851;28;20645;-45
2024/01/16 20:44:46;;;;;;;14.85;8.15;;;1.90;99.90;;;;;;5080625;28;20190;-44
2024/01/16 20:47:12;;;;;;;11.70;7.57;;;2.00;99.90;;;;;;5079678;28;20251;-46
2024/01/16 20:49:38;;;;;;;13.25;7.05;;;2.00;99.90;;;;;;5078272;28;20213;-47
2024/01/16 20:52:04;;;;;;;15.52;7.60;;;2.10;99.90;;;;;;5080292;28;20181;-49
2024/01/16 20:54:30;;;;;;;16.60;8.40;;;2.10;99.90;;;;;;5080457;28;20284;-51
2024/01/16 20:56:56;;;;;;;15.80;7.82;;;2.10;99.90;;;;;;5062799;28;20190;-46
2024/01/16 20:59:23;;;;;;;18.13;8.15;;;2.20;99.90;;;;;;5080451;28;20684;-47
2024/01/16 21:01:51;;;;;;;18.27;8.98;;;2.20;99.90;;;;;;5080627;28;20300;-50
2024/01/16 21:04:17;;;;;;;18.83;8.85;;;2.20;99.90;;;;;;5080801;28;20678;-51
2024/01/16 21:06:43;;;;;;;20.08;9.90;;;2.20;99.90;;;;;;5080761;28;20186;-52
2024/01/16 21:09:15;;;;;;;20.90;8.90;;;2.20;99.90;;;;;;5078683;28;21037;-46
2024/01/16 21:11:44;;;;;;;16.95;8.45;;;2.20;99.90;;;;;;5080764;28;20204;-49
2024/01/16 21:14:10;;;;;;;15.75;8.55;;;2.20;99.90;;;;;;5080876;28;20193;-53
2024/01/16 21:16:37;;;;;;;18.05;8.82;;;2.30;99.90;;;;;;5080223;28;20273;-54
2024/01/16 21:19:06;;;;;;;15.43;8.63;;;2.30;99.90;;;;;;5080218;28;20233;-47
2024/01/16 21:21:33;;;;;;;17.00;9.02;;;2.30;99.90;;;;;;5080548;28;20239;-52
2024/01/16 21:23:59;;;;;;;22.42;8.80;;;2.30;99.90;;;;;;5080979;28;20236;-47
2024/01/16 21:26:25;;;;;;;20.80;9.05;;;2.30;99.90;;;;;;5080217;28;20614;-45
2024/01/16 21:28:51;;;;;;;14.88;8.85;;;2.30;99.90;;;;;;5080627;28;20189;-49
2024/01/16 21:31:16;;;;;;;14.85;8.85;;;2.20;99.90;;;;;;5080028;28;20194;-52
2024/01/16 21:33:44;;;;;;;17.52;8.95;;;2.10;99.90;;;;;;5080128;28;20212;-51
2024/01/16 21:36:12;;;;;;;15.57;9.27;;;2.10;99.90;;;;;;5080015;28;20199;-54
2024/01/16 21:38:39;;;;;;;16.83;8.82;;;2.00;99.90;;;;;;5080066;28;20218;-52
2024/01/16 21:41:09;;;;;;;14.75;9.05;;;2.00;99.90;;;;;;5078927;28;20186;-48
2024/01/16 21:43:34;;;;;;;14.43;8.32;;;1.90;99.90;;;;;;5080213;28;20209;-49
2024/01/16 21:46:01;;;;;;;16.90;9.35;;;1.90;99.90;;;;;;5080363;28;20182;-47
2024/01/16 21:48:28;;;;;;;16.85;9.65;;;1.90;99.90;;;;;;5079210;28;20193;-50
2024/01/16 21:50:56;;;;;;;15.02;8.93;;;1.80;99.90;;;;;;5079653;28;20553;-50
2024/01/16 21:53:22;;;;;;;17.33;9.35;;;1.80;99.90;;;;;;5080578;28;20205;-47
2024/01/16 21:55:48;;;;;;;15.85;9.10;;;1.80;99.90;;;;;;5080409;28;20189;-51
2024/01/16 21:58:15;;;;;;;16.15;8.88;;;1.80;99.90;;;;;;5079656;28;20190;-50
2024/01/16 22:00:41;;;;;;;15.70;9.00;;;1.80;99.90;;;;;;5080104;28;20224;-48
2024/01/16 22:03:07;;;;;;;15.48;8.98;;;1.70;99.90;;;;;;5078314;28;20193;-50
2024/01/16 22:05:34;;;;;;;16.25;9.65;;;1.80;99.90;;;;;;5080673;28;20254;-46
2024/01/16 22:08:00;;;;;;;15.93;9.15;;;1.80;99.90;;;;;;5084039;28;20752;-51
2024/01/16 22:10:26;;;;;;;19.48;9.95;;;1.90;99.90;;;;;;5083614;28;20284;-48
2024/01/16 22:12:52;;;;;;;12.18;8.90;;;1.90;99.90;;;;;;5083848;28;20193;-52
2024/01/16 22:15:17;;;;;;;12.90;8.32;;;1.90;99.90;;;;;;5083777;28;20186;-46
2024/01/16 22:17:45;;;;;;;19.67;9.75;;;2.00;99.90;;;;;;5084290;28;20225;-48
2024/01/16 22:20:12;;;;;;;17.63;9.10;;;2.00;99.90;;;;;;5081516;28;20279;-50
2024/01/16 22:22:41;;;;;;;17.88;9.68;;;1.90;99.90;;;;;;5083800;28;20206;-52
2024/01/16 22:25:07;;;;;;;20.60;10.00;;;2.00;99.90;;;;;;5082367;28;20661;-49
2024/01/16 22:27:33;;;;;;;17.15;9.38;;;2.00;99.90;;;;;;5083252;28;20649;-51
2024/01/16 22:30:00;;;;;;;16.85;9.25;;;2.00;99.90;;;;;;5082383;28;20205;-53
2024/01/16 22:32:27;;;;;;;16.45;8.55;;;2.00;99.90;;;;;;5083313;28;20281;-50
2024/01/16 22:34:54;;;;;;;15.57;9.45;;;2.00;99.90;;;;;;5083152;28;20277;-49
2024/01/16 22:37:19;;;;;;;16.38;9.40;;;2.00;99.90;;;;;;5083361;28;20645;-49
2024/01/16 22:39:45;;;;;;;24.98;9.57;;;2.00;99.90;;;;;;5083416;28;20217;-48
2024/01/16 22:42:11;;;;;;;16.50;9.18;;;2.10;99.90;;;;;;5083360;28;20192;-46
2024/01/16 22:44:38;;;;;;;16.23;9.15;;;2.10;99.90;;;;;;5081880;28;20178;-47
2024/01/16 22:47:05;;;;;;;17.77;8.45;;;2.10;99.90;;;;;;5083706;28;20243;-49
2024/01/16 22:49:35;;;;;;;18.80;9.02;;;2.10;99.90;;;;;;5081739;28;20200;-51
2024/01/16 22:52:01;;;;;;;15.70;9.15;;;2.10;99.90;;;;;;5082278;28;20194;-50
2024/01/16 22:54:27;;;;;;;19.35;8.10;;;2.10;99.90;;;;;;5083255;28;20277;-51
2024/01/16 22:56:53;;;;;;;14.38;7.88;;;2.10;99.90;;;;;;5082817;28;20327;-48
2024/01/16 22:59:20;;;;;;;13.93;8.13;;;2.10;99.90;;;;;;5083039;28;20225;-50
2024/01/16 23:01:47;;;;;;;13.80;8.15;;;2.10;99.90;;;;;;5082475;28;20229;-53
2024/01/16 23:04:13;;;;;;;13.63;8.00;;;2.20;99.90;;;;;;5083316;28;20186;-47
2024/01/16 23:06:39;;;;;;;14.95;8.05;;;2.20;99.90;;;;;;5082907;28;20201;-50
2024/01/16 23:09:08;;;;;;;17.38;7.70;;;2.20;99.90;;;;;;5083123;28;20185;-47
2024/01/16 23:11:35;;;;;;;13.68;7.65;;;2.20;99.90;;;;;;5082250;28;20190;-52
2024/01/16 23:14:02;;;;;;;10.38;7.07;;;2.20;99.90;;;;;;5081061;28;20193;-52
2024/01/16 23:16:28;;;;;;;14.43;7.05;;;2.30;99.90;;;;;;5082719;28;20216;-49
2024/01/16 23:18:54;;;;;;;14.73;7.20;;;2.30;99.90;;;;;;5080979;28;20186;-45
2024/01/16 23:21:21;;;;;;;11.07;6.95;;;2.30;99.90;;;;;;5082482;28;20193;-55
2024/01/16 23:23:48;;;;;;;13.43;6.53;;;2.30;99.90;;;;;;5082297;28;20201;-47
2024/01/16 23:26:17;;;;;;;11.40;6.13;;;2.30;99.90;;;;;;5082579;28;20256;-50
2024/01/16 23:28:43;;;;;;;18.20;6.25;;;2.30;99.90;;;;;;5082503;28;20205;-48
2024/01/16 23:31:11;;;;;;;11.98;6.43;;;2.30;99.90;;;;;;5082081;28;20243;-46
2024/01/16 23:33:37;;;;;;;11.90;5.75;;;2.30;99.90;;;;;;5082582;28;20201;-49
2024/01/16 23:36:04;;;;;;;13.45;5.88;;;2.40;99.90;;;;;;5082312;28;20204;-46
2024/01/16 23:38:30;;;;;;;10.40;5.43;;;2.40;99.90;;;;;;5082400;28;20190;-52
2024/01/16 23:40:57;;;;;;;14.77;5.22;;;2.40;99.90;;;;;;5082067;28;20220;-46
2024/01/16 23:43:25;;;;;;;10.15;5.32;;;2.40;99.90;;;;;;5082364;28;20186;-53
2024/01/16 23:45:54;;;;;;;9.98;4.70;;;2.40;99.90;;;;;;5081654;28;20527;-48
2024/01/16 23:48:20;;;;;;;12.45;4.80;;;2.40;99.90;;;;;;5082335;28;20276;-48
2024/01/16 23:50:46;;;;;;;9.23;4.30;;;2.40;99.90;;;;;;5081891;28;20208;-50
2024/01/16 23:53:12;;;;;;;6.28;4.32;;;2.40;99.90;;;;;;5080817;28;20194;-50
2024/01/16 23:55:38;;;;;;;9.65;4.53;;;2.40;99.90;;;;;;5082272;28;20342;-48
2024/01/16 23:58:04;;;;;;;9.30;4.20;;;2.40;99.90;;;;;;5081813;28;20630;-49
